Messwerte Ambon

Temperatur

Temperatur
°C
1573452000 15.00 15.00
1573455600 16.00 16.00
1573459200 17.00 17.00 29
1573462800 18.00 18.00 29
1573466400 19.00 19.00
1573470000 20.00 20.00
1573473600 21.00 21.00
1573477200 22.00 22.00 26
1573480800 23.00 23.00 25
1573484400 0.00 0.00 25
1573488000 1.00 1.00 24
1573491600 2.00 2.00
1573495200 3.00 3.00
1573498800 4.00 4.00
1573502400 5.00 5.00
1573506000 6.00 6.00
1573509600 7.00 7.00 24
1573513200 8.00 8.00
1573516800 9.00 9.00
1573520400 10.00 10.00 32
1573524000 11.00 11.00 31
1573527600 12.00 12.00 31
1573531200 13.00 13.00 31
1573534800 14.00 14.00 31

Aktuellste Messwerte

Wettercharakter
Wetter: recht sonnig
Temperatur
31 °C
Feuchtigkeit
70 %
Wind
15 km/hWindrichtung: Südwest
Luftdruck
1009 hPa
Messzeit: 12. November 2019, 14.00Datenquelle: METAR

Wind

Windrichtung Böen Mittelwind
° km/h km/h
1573452000 15.00 14.00 - 15.00
1573455600 16.00 15.00 - 16.00
1573459200 17.00 16.00 - 17.00 190° 10
1573462800 18.00 17.00 - 18.00 160° 5
1573466400 19.00 18.00 - 19.00
1573470000 20.00 19.00 - 20.00
1573473600 21.00 20.00 - 21.00
1573477200 22.00 21.00 - 22.00 330° 15
1573480800 23.00 22.00 - 23.00 340° 20
1573484400 0.00 23.00 - 0.00 350° 10
1573488000 1.00 0.00 - 1.00 330° 20
1573491600 2.00 1.00 - 2.00
1573495200 3.00 2.00 - 3.00
1573498800 4.00 3.00 - 4.00
1573502400 5.00 4.00 - 5.00
1573506000 6.00 5.00 - 6.00
1573509600 7.00 6.00 - 7.00 340° 15
1573513200 8.00 7.00 - 8.00
1573516800 9.00 8.00 - 9.00
1573520400 10.00 9.00 - 10.00 140° 5
1573524000 11.00 10.00 - 11.00 210° 10
1573527600 12.00 11.00 - 12.00 200° 15
1573531200 13.00 12.00 - 13.00 210° 15
1573534800 14.00 13.00 - 14.00 210° 15

Ihre Wetterstation

Fehlt Ihre Wetterstation auf unserem Portal?

Schreiben Sie an network@meteonews.ch

Klima

Wann ist es am wärmsten? Wann regnet es am wenigsten? Unsere Klimadaten geben Auskunft.